createdAt,value
2019-01-11T00:00:09.221Z,3.80
2019-01-11T00:02:41.094Z,2.87
2019-01-11T00:05:11.288Z,4.80
2019-01-11T00:07:41.755Z,4.30
2019-01-11T00:10:11.985Z,2.60
2019-01-11T00:12:42.232Z,2.90
2019-01-11T00:15:12.559Z,2.53
2019-01-11T00:17:42.774Z,2.53
2019-01-11T00:20:13.104Z,2.40
2019-01-11T00:22:43.341Z,2.67
2019-01-11T00:25:13.642Z,2.73
2019-01-11T00:27:44.159Z,2.73
2019-01-11T00:30:14.466Z,5.10
2019-01-11T00:32:44.662Z,2.83
2019-01-11T00:35:14.919Z,3.17
2019-01-11T00:37:45.005Z,3.23
2019-01-11T00:40:15.225Z,2.90
2019-01-11T00:42:46.383Z,6.63
2019-01-11T00:45:16.895Z,3.23
2019-01-11T00:47:47.153Z,4.17
2019-01-11T00:50:17.554Z,3.53
2019-01-11T00:52:47.754Z,3.40
2019-01-11T00:55:17.899Z,3.50
2019-01-11T00:57:48.025Z,3.60
2019-01-11T01:00:20.164Z,3.90
2019-01-11T01:02:50.674Z,3.87
2019-01-11T01:05:21.001Z,3.50
2019-01-11T01:07:52.284Z,4.53
2019-01-11T01:10:24.008Z,4.63
2019-01-11T01:12:54.221Z,4.50
2019-01-11T01:15:24.377Z,4.57
2019-01-11T01:17:54.620Z,5.83
2019-01-11T01:20:24.802Z,6.33
2019-01-11T01:22:54.965Z,6.07
2019-01-11T01:25:25.114Z,8.43
2019-01-11T01:27:55.206Z,6.87
2019-01-11T01:30:25.347Z,6.87
2019-01-11T01:32:55.568Z,9.27
2019-01-11T01:35:25.767Z,7.97
2019-01-11T01:37:56.074Z,6.77
2019-01-11T01:40:27.376Z,7.30
2019-01-11T01:42:57.459Z,6.90
2019-01-11T01:45:27.724Z,8.23
2019-01-11T01:47:57.921Z,6.43
2019-01-11T01:50:28.176Z,5.60
2019-01-11T01:52:58.346Z,5.87
2019-01-11T01:55:28.663Z,5.07
2019-01-11T01:57:58.887Z,5.00
2019-01-11T02:00:29.303Z,9.40
2019-01-11T02:02:59.589Z,5.53
2019-01-11T02:05:29.656Z,4.83
2019-01-11T02:07:59.839Z,5.57
2019-01-11T02:10:30.040Z,5.87
2019-01-11T02:13:00.258Z,7.17
2019-01-11T02:15:30.426Z,5.70
2019-01-11T02:18:00.664Z,6.33
2019-01-11T02:20:30.863Z,6.03
2019-01-11T02:23:01.084Z,5.83
2019-01-11T02:25:31.270Z,6.40
2019-01-11T02:28:01.828Z,7.13
2019-01-11T02:30:32.092Z,6.90
2019-01-11T02:33:02.307Z,6.60
2019-01-11T02:35:32.466Z,7.17
2019-01-11T02:38:02.690Z,7.10
2019-01-11T02:40:32.919Z,6.97
2019-01-11T02:43:03.130Z,7.07
2019-01-11T02:45:33.458Z,7.13
2019-01-11T02:48:03.588Z,7.10
2019-01-11T02:50:33.811Z,7.77
2019-01-11T02:53:03.932Z,6.93
2019-01-11T02:55:34.222Z,6.37
2019-01-11T02:58:04.483Z,6.33
2019-01-11T03:00:34.751Z,7.13
2019-01-11T03:03:05.043Z,6.33
2019-01-11T03:05:35.287Z,6.10
2019-01-11T03:08:05.430Z,6.43
2019-01-11T03:10:35.771Z,6.53
2019-01-11T03:13:06.081Z,6.83
2019-01-11T03:15:36.308Z,7.40
2019-01-11T03:18:06.495Z,6.70
2019-01-11T03:20:37.703Z,7.40
2019-01-11T03:23:07.975Z,7.57
2019-01-11T03:25:38.127Z,7.30
2019-01-11T03:28:08.266Z,6.83
2019-01-11T03:30:38.543Z,7.30
2019-01-11T03:33:08.760Z,7.67
2019-01-11T03:35:39.008Z,8.30
2019-01-11T03:38:09.274Z,8.20
2019-01-11T03:40:39.381Z,8.40
2019-01-11T03:43:09.583Z,8.33
2019-01-11T03:45:39.728Z,9.03
2019-01-11T03:48:09.943Z,8.80
2019-01-11T03:50:40.547Z,9.20
2019-01-11T03:53:10.804Z,10.53
2019-01-11T03:55:40.951Z,10.73
2019-01-11T03:58:11.191Z,10.57
2019-01-11T04:00:41.628Z,11.23
2019-01-11T04:03:11.970Z,10.17
2019-01-11T04:05:42.480Z,10.30
2019-01-11T04:08:12.755Z,9.80
2019-01-11T04:10:43.054Z,8.50
2019-01-11T04:13:14.808Z,8.13
2019-01-11T04:15:44.970Z,10.70
2019-01-11T04:18:31.553Z,9.53
2019-01-11T04:21:01.734Z,9.40
2019-01-11T04:23:31.899Z,9.87
2019-01-11T04:26:02.204Z,8.90
2019-01-11T04:28:32.362Z,9.30
2019-01-11T04:31:02.550Z,10.03
2019-01-11T04:33:33.668Z,9.57
2019-01-11T04:36:03.868Z,10.50
2019-01-11T04:38:34.035Z,10.53
2019-01-11T04:41:04.166Z,9.67
2019-01-11T04:43:34.333Z,10.77
2019-01-11T04:46:04.469Z,10.77
2019-01-11T04:48:34.916Z,13.47
2019-01-11T04:51:05.190Z,13.20
2019-01-11T04:53:35.443Z,12.17
2019-01-11T04:56:05.705Z,12.33
2019-01-11T04:58:36.025Z,12.87
2019-01-11T05:01:06.257Z,11.77
2019-01-11T05:03:36.641Z,14.40
2019-01-11T05:06:07.945Z,12.70
2019-01-11T05:08:38.130Z,13.53
2019-01-11T05:11:08.257Z,13.97
2019-01-11T05:13:40.103Z,13.27
2019-01-11T05:16:10.267Z,14.53
2019-01-11T05:18:40.375Z,14.50
2019-01-11T05:21:10.566Z,13.63
2019-01-11T05:23:40.668Z,14.50
2019-01-11T05:26:10.907Z,14.50
2019-01-11T05:28:41.058Z,13.87
2019-01-11T05:31:11.884Z,14.63
2019-01-11T05:33:42.113Z,17.07
2019-01-11T05:36:12.375Z,14.73
2019-01-11T05:38:42.521Z,15.30
2019-01-11T05:41:12.646Z,18.50
2019-01-11T05:43:42.779Z,14.73
2019-01-11T05:46:13.087Z,19.20
2019-01-11T05:48:43.316Z,15.97
2019-01-11T05:51:13.582Z,17.80
2019-01-11T05:53:43.831Z,16.00
2019-01-11T05:56:16.383Z,15.77
2019-01-11T05:58:58.666Z,16.93
2019-01-11T06:01:30.051Z,16.23
2019-01-11T06:04:00.393Z,17.60
2019-01-11T06:06:49.982Z,16.47
2019-01-11T06:09:20.219Z,21.57
2019-01-11T06:11:50.495Z,17.63
2019-01-11T06:14:20.783Z,16.30
2019-01-11T06:16:50.937Z,18.83
2019-01-11T06:19:21.196Z,20.80
2019-01-11T06:21:51.459Z,19.63
2019-01-11T06:24:21.739Z,20.43
2019-01-11T06:26:52.406Z,19.70
2019-01-11T06:29:22.669Z,19.03
2019-01-11T06:31:53.095Z,19.47
2019-01-11T06:34:23.363Z,20.97
2019-01-11T06:36:53.878Z,20.43
2019-01-11T06:39:24.187Z,22.50
2019-01-11T06:41:57.499Z,22.97
2019-01-11T06:44:28.779Z,22.00
2019-01-11T06:46:59.048Z,20.07
2019-01-11T06:49:29.290Z,20.73
2019-01-11T06:51:59.424Z,21.80
2019-01-11T06:54:29.664Z,23.10
2019-01-11T06:56:59.861Z,25.40
2019-01-11T06:59:30.127Z,25.27
2019-01-11T07:02:00.347Z,20.20
2019-01-11T07:04:30.541Z,25.70
2019-01-11T07:07:01.026Z,23.87
2019-01-11T07:09:31.236Z,24.40
2019-01-11T07:12:01.615Z,23.73
2019-01-11T07:14:31.794Z,22.33
2019-01-11T07:17:01.930Z,25.77
2019-01-11T07:19:32.050Z,22.60
2019-01-11T07:22:02.623Z,22.00
2019-01-11T07:24:33.843Z,27.10
2019-01-11T07:27:04.073Z,25.07
2019-01-11T07:29:34.298Z,24.30
2019-01-11T07:32:04.750Z,22.17
2019-01-11T07:34:35.213Z,27.07
2019-01-11T07:37:05.777Z,23.93
2019-01-11T07:39:36.082Z,24.67
2019-01-11T07:42:06.267Z,23.97
2019-01-11T07:44:36.475Z,23.93
2019-01-11T07:47:06.754Z,23.13
2019-01-11T07:49:36.846Z,24.13
2019-01-11T07:52:07.051Z,23.07
2019-01-11T07:54:37.127Z,24.23
2019-01-11T07:57:07.424Z,32.77
2019-01-11T07:59:37.638Z,23.27
2019-01-11T08:02:07.723Z,28.87
2019-01-11T08:04:37.963Z,25.13
2019-01-11T08:07:08.178Z,22.23
2019-01-11T08:09:38.282Z,23.53
2019-01-11T08:12:08.471Z,23.43
2019-01-11T08:14:38.628Z,24.70
2019-01-11T08:17:08.763Z,23.37
2019-01-11T08:19:38.913Z,20.43
2019-01-11T08:22:11.587Z,26.13
2019-01-11T08:24:45.612Z,20.97
2019-01-11T08:27:15.742Z,24.90
2019-01-11T08:29:49.023Z,23.17
2019-01-11T08:32:19.245Z,22.53
2019-01-11T08:34:49.442Z,22.10
2019-01-11T08:37:21.262Z,24.83
2019-01-11T08:39:51.639Z,24.20
2019-01-11T08:42:21.870Z,21.87
2019-01-11T08:44:52.004Z,23.07
2019-01-11T08:47:22.063Z,24.57
2019-01-11T08:49:52.290Z,20.90
2019-01-11T08:52:22.514Z,23.13
2019-01-11T08:54:52.645Z,24.53
2019-01-11T08:57:22.870Z,25.33
2019-01-11T08:59:53.352Z,25.90
2019-01-11T09:02:23.503Z,22.13
2019-01-11T09:04:54.118Z,23.27
2019-01-11T09:07:24.244Z,25.47
2019-01-11T09:09:54.346Z,24.67
2019-01-11T09:12:24.531Z,25.50
2019-01-11T09:14:54.873Z,23.20
2019-01-11T09:17:25.044Z,24.20
2019-01-11T09:19:55.475Z,32.03
2019-01-11T09:22:25.751Z,24.73
2019-01-11T09:24:55.845Z,25.47
2019-01-11T09:27:26.013Z,28.63
2019-01-11T09:29:56.107Z,21.60
2019-01-11T09:32:26.363Z,22.70
2019-01-11T09:34:56.497Z,29.73
2019-01-11T09:37:26.604Z,30.73
2019-01-11T09:39:56.775Z,29.23
2019-01-11T09:42:27.019Z,27.33
2019-01-11T09:44:57.267Z,24.87
2019-01-11T09:47:27.432Z,24.87
2019-01-11T09:49:58.635Z,30.40
2019-01-11T09:52:29.193Z,29.17
2019-01-11T09:54:59.510Z,28.07
2019-01-11T09:57:29.706Z,24.73
2019-01-11T09:59:59.958Z,28.57
2019-01-11T10:02:37.198Z,27.70
2019-01-11T10:05:09.180Z,29.17
2019-01-11T10:07:39.552Z,28.40
2019-01-11T10:10:12.390Z,24.70
2019-01-11T10:12:42.603Z,27.40
2019-01-11T10:15:13.408Z,30.20
2019-01-11T10:17:43.557Z,27.57
2019-01-11T10:20:13.972Z,31.80
2019-01-11T10:22:44.053Z,29.87
2019-01-11T10:25:14.290Z,28.93
2019-01-11T10:27:44.458Z,30.93
2019-01-11T10:30:16.711Z,33.00
2019-01-11T10:32:47.139Z,41.83
2019-01-11T10:35:17.303Z,45.67
2019-01-11T10:37:47.435Z,34.03
2019-01-11T10:40:18.294Z,37.27
2019-01-11T10:42:49.617Z,37.47
2019-01-11T10:45:21.989Z,33.23
2019-01-11T10:47:55.240Z,44.70
2019-01-11T10:50:25.344Z,37.03
2019-01-11T10:52:55.741Z,36.10
2019-01-11T10:55:25.819Z,34.37
2019-01-11T10:57:56.032Z,32.83
2019-01-11T11:00:26.953Z,40.90
2019-01-11T11:02:57.423Z,34.67
2019-01-11T11:05:27.519Z,37.77
2019-01-11T11:07:57.565Z,35.37
2019-01-11T11:10:27.675Z,35.93
2019-01-11T11:12:57.739Z,39.83
2019-01-11T11:15:28.051Z,33.07
2019-01-11T11:17:58.588Z,34.73
2019-01-11T11:20:28.730Z,39.20
2019-01-11T11:22:59.512Z,38.53
2019-01-11T11:25:30.158Z,35.47
2019-01-11T11:28:00.465Z,39.93
2019-01-11T11:30:30.590Z,41.33
2019-01-11T11:33:01.932Z,37.57
2019-01-11T11:35:32.809Z,42.50
2019-01-11T11:38:03.058Z,42.03
2019-01-11T11:40:33.559Z,34.53
2019-01-11T11:43:03.808Z,37.67
2019-01-11T11:45:33.949Z,42.23
2019-01-11T11:48:04.212Z,33.60
2019-01-11T11:50:34.718Z,42.83
2019-01-11T11:53:05.227Z,37.57
2019-01-11T11:55:35.434Z,33.97
2019-01-11T11:58:05.798Z,33.77
2019-01-11T12:00:35.982Z,42.07
2019-01-11T12:03:06.219Z,38.13
2019-01-11T12:05:36.364Z,35.97
2019-01-11T12:08:06.482Z,34.33
2019-01-11T12:10:36.641Z,32.37
2019-01-11T12:13:06.755Z,35.53
2019-01-11T12:15:37.103Z,36.67
2019-01-11T12:18:07.338Z,33.10
2019-01-11T12:20:37.702Z,30.63
2019-01-11T12:23:07.935Z,30.50
2019-01-11T12:25:38.135Z,34.20
2019-01-11T12:28:08.359Z,35.93
2019-01-11T12:30:38.455Z,30.97
2019-01-11T12:33:08.661Z,36.40
2019-01-11T12:35:38.731Z,35.03
2019-01-11T12:38:13.678Z,33.33
2019-01-11T12:40:41.708Z,33.27
2019-01-11T12:43:11.844Z,31.77
2019-01-11T12:45:42.963Z,36.33
2019-01-11T12:48:13.174Z,35.17
2019-01-11T12:50:43.395Z,33.57
2019-01-11T12:53:13.723Z,26.80
2019-01-11T12:55:43.832Z,31.03
2019-01-11T12:58:14.064Z,28.93
2019-01-11T13:00:44.250Z,24.63
2019-01-11T13:03:14.487Z,30.17
2019-01-11T13:05:44.679Z,28.20
2019-01-11T13:08:14.821Z,23.93
2019-01-11T13:10:45.122Z,25.17
2019-01-11T13:13:15.215Z,25.77
2019-01-11T13:15:45.381Z,26.83
2019-01-11T13:18:15.543Z,24.63
2019-01-11T13:20:45.742Z,25.10
2019-01-11T13:23:15.832Z,22.07
2019-01-11T13:25:46.095Z,18.23
2019-01-11T13:28:16.393Z,13.60
2019-01-11T13:30:46.578Z,20.80
2019-01-11T13:33:17.212Z,12.87
2019-01-11T13:35:47.367Z,8.87
2019-01-11T13:38:17.599Z,8.33
2019-01-11T13:40:47.696Z,8.50
2019-01-11T13:43:17.895Z,8.53
2019-01-11T13:45:48.218Z,6.47
2019-01-11T13:48:18.366Z,6.97
2019-01-11T13:50:48.544Z,5.37
2019-01-11T13:53:20.170Z,5.17
2019-01-11T13:55:50.967Z,6.67
2019-01-11T13:58:21.215Z,5.90
2019-01-11T14:00:51.369Z,4.23
2019-01-11T14:03:21.720Z,4.50
2019-01-11T14:05:51.935Z,6.33
2019-01-11T14:08:22.134Z,5.47
2019-01-11T14:10:52.382Z,7.23
2019-01-11T14:13:22.591Z,4.33
2019-01-11T14:15:52.839Z,10.73
2019-01-11T14:18:23.387Z,4.50
2019-01-11T14:20:53.606Z,6.47
2019-01-11T14:23:23.767Z,5.63
2019-01-11T14:25:54.016Z,8.00
2019-01-11T14:28:24.184Z,9.10
2019-01-11T14:30:54.348Z,6.70
2019-01-11T14:33:24.592Z,5.93
2019-01-11T14:35:54.714Z,5.07
2019-01-11T14:38:24.963Z,7.33
2019-01-11T14:40:55.162Z,5.17
2019-01-11T14:43:25.444Z,5.37
2019-01-11T14:45:55.623Z,8.83
2019-01-11T14:48:25.835Z,5.07
2019-01-11T14:50:56.079Z,6.20
2019-01-11T14:53:26.474Z,6.20
2019-01-11T14:55:56.633Z,7.63
2019-01-11T14:58:28.816Z,8.70
2019-01-11T15:00:58.643Z,7.63
2019-01-11T15:03:28.875Z,6.07
2019-01-11T15:05:59.382Z,4.87
2019-01-11T15:08:29.627Z,6.10
2019-01-11T15:10:59.839Z,5.40
2019-01-11T15:13:30.569Z,13.50
2019-01-11T15:16:00.786Z,6.63
2019-01-11T15:18:31.066Z,6.53
2019-01-11T15:21:01.269Z,5.90
2019-01-11T15:23:31.454Z,3.97
2019-01-11T15:26:01.566Z,3.60
2019-01-11T15:28:31.874Z,5.13
2019-01-11T15:31:02.078Z,3.43
2019-01-11T15:33:32.244Z,4.03
2019-01-11T15:36:02.485Z,5.40
2019-01-11T15:38:32.676Z,4.37
2019-01-11T15:41:02.963Z,5.30
2019-01-11T15:43:33.182Z,5.90
2019-01-11T15:46:04.813Z,6.87
2019-01-11T15:48:44.212Z,4.10
2019-01-11T15:51:15.287Z,5.43
2019-01-11T15:53:45.571Z,4.07
2019-01-11T15:56:22.720Z,4.33
2019-01-11T15:58:52.943Z,4.33
2019-01-11T16:01:24.680Z,11.73
2019-01-11T16:03:55.032Z,9.87
2019-01-11T16:06:29.983Z,5.20
2019-01-11T16:10:00.001Z,3.80
2019-01-11T16:12:56.771Z,3.63
2019-01-11T16:16:09.641Z,4.27
2019-01-11T16:18:39.888Z,4.47
2019-01-11T16:21:10.097Z,4.53
2019-01-11T16:23:40.275Z,4.13
2019-01-11T16:26:10.440Z,5.93
2019-01-11T16:28:41.660Z,3.83
2019-01-11T16:31:11.868Z,57.30
2019-01-11T16:33:42.369Z,6.03
2019-01-11T16:36:12.474Z,4.93
2019-01-11T16:38:42.594Z,4.83
2019-01-11T16:41:12.847Z,3.77
2019-01-11T16:43:43.058Z,4.23
2019-01-11T16:46:13.278Z,4.57
2019-01-11T16:48:43.535Z,3.27
2019-01-11T16:51:14.815Z,4.67
2019-01-11T16:53:45.052Z,4.43
2019-01-11T16:56:15.298Z,4.50
2019-01-11T16:58:45.987Z,7.73
2019-01-11T17:01:16.161Z,6.90
2019-01-11T17:03:46.381Z,5.77
2019-01-11T17:06:16.620Z,4.63
2019-01-11T17:08:47.697Z,6.10
2019-01-11T17:11:18.009Z,5.53
2019-01-11T17:13:48.504Z,6.13
2019-01-11T17:16:18.781Z,9.13
2019-01-11T17:18:48.982Z,8.47
2019-01-11T17:21:19.255Z,9.70
2019-01-11T17:23:49.448Z,5.70
2019-01-11T17:26:19.721Z,6.47
2019-01-11T17:28:49.988Z,5.33
2019-01-11T17:31:20.195Z,5.77
2019-01-11T17:33:50.417Z,6.17
2019-01-11T17:36:20.683Z,6.30
2019-01-11T17:38:51.009Z,18.23
2019-01-11T17:41:21.166Z,10.23
2019-01-11T17:43:51.313Z,7.23
2019-01-11T17:46:21.448Z,6.20
2019-01-11T17:48:52.238Z,6.10
2019-01-11T17:51:22.449Z,8.17
2019-01-11T17:53:52.860Z,8.53
2019-01-11T17:56:23.093Z,9.27
2019-01-11T17:58:53.275Z,8.77
2019-01-11T18:01:23.461Z,8.90
2019-01-11T18:03:53.737Z,7.57
2019-01-11T18:06:23.965Z,11.03
2019-01-11T18:08:54.146Z,7.43
2019-01-11T18:11:24.315Z,6.67
2019-01-11T18:13:54.815Z,5.93
2019-01-11T18:16:24.971Z,6.43
2019-01-11T18:18:55.489Z,7.13
2019-01-11T18:21:25.691Z,8.23
2019-01-11T18:23:56.057Z,9.83
2019-01-11T18:26:26.292Z,9.20
2019-01-11T18:28:56.528Z,13.70
2019-01-11T18:31:26.817Z,11.60
2019-01-11T18:33:57.363Z,8.30
2019-01-11T18:36:27.604Z,12.90
2019-01-11T18:38:58.222Z,10.07
2019-01-11T18:41:28.399Z,10.10
2019-01-11T18:43:58.793Z,10.07
2019-01-11T18:46:28.923Z,7.50
2019-01-11T18:48:59.202Z,8.80
2019-01-11T18:51:29.424Z,11.57
2019-01-11T18:53:59.643Z,7.40
2019-01-11T18:56:29.763Z,7.77
2019-01-11T18:59:00.017Z,11.90
2019-01-11T19:01:30.166Z,7.57
2019-01-11T19:04:00.311Z,10.60
2019-01-11T19:06:30.596Z,8.20
2019-01-11T19:09:00.888Z,10.53
2019-01-11T19:11:32.656Z,7.37
2019-01-11T19:14:02.867Z,8.10
2019-01-11T19:16:33.091Z,8.17
2019-01-11T19:19:03.323Z,8.33
2019-01-11T19:21:33.722Z,7.17
2019-01-11T19:24:04.075Z,8.77
2019-01-11T19:26:34.333Z,7.33
2019-01-11T19:29:04.826Z,6.37
2019-01-11T19:31:34.990Z,7.60
2019-01-11T19:34:05.280Z,7.90
2019-01-11T19:36:35.457Z,6.77
2019-01-11T19:39:08.212Z,8.90
2019-01-11T19:41:38.558Z,10.50
2019-01-11T19:44:08.761Z,6.17
2019-01-11T19:46:39.008Z,7.17
2019-01-11T19:49:09.111Z,7.83
2019-01-11T19:51:40.316Z,7.83
2019-01-11T19:54:11.432Z,8.43
2019-01-11T19:56:42.620Z,10.03
2019-01-11T19:59:12.831Z,9.83
2019-01-11T20:01:43.017Z,7.73
2019-01-11T20:04:13.228Z,7.53
2019-01-11T20:06:43.736Z,8.53
2019-01-11T20:09:14.896Z,13.20
2019-01-11T20:11:45.163Z,7.00
2019-01-11T20:14:15.698Z,8.93
2019-01-11T20:16:45.794Z,10.63
2019-01-11T20:19:16.038Z,7.90
2019-01-11T20:21:46.201Z,9.03
2019-01-11T20:24:16.487Z,8.87
2019-01-11T20:26:46.701Z,9.93
2019-01-11T20:29:16.942Z,6.77
2019-01-11T20:31:47.047Z,8.10
2019-01-11T20:34:17.269Z,9.50
2019-01-11T20:37:02.296Z,9.43
2019-01-11T20:39:32.792Z,8.87
2019-01-11T20:42:02.972Z,15.23
2019-01-11T20:44:34.221Z,10.53
2019-01-11T20:47:04.518Z,7.90
2019-01-11T20:49:34.782Z,7.90
2019-01-11T20:52:05.286Z,10.73
2019-01-11T20:54:35.458Z,10.30
2019-01-11T20:57:05.818Z,8.07
2019-01-11T20:59:35.956Z,10.30
2019-01-11T21:02:06.417Z,12.03
2019-01-11T21:04:36.665Z,6.90
2019-01-11T21:07:06.938Z,6.27
2019-01-11T21:09:37.130Z,6.67
2019-01-11T21:12:07.375Z,6.73
2019-01-11T21:14:37.593Z,5.87
2019-01-11T21:17:08.096Z,5.03
2019-01-11T21:19:39.388Z,5.50
2019-01-11T21:22:10.314Z,6.07
2019-01-11T21:24:40.531Z,6.63
2019-01-11T21:27:10.714Z,7.67
2019-01-11T21:29:40.923Z,7.73
2019-01-11T21:32:11.327Z,7.27
2019-01-11T21:34:41.535Z,5.97
2019-01-11T21:37:11.733Z,5.47
2019-01-11T21:39:42.974Z,6.63
2019-01-11T21:42:19.069Z,5.13
2019-01-11T21:44:45.046Z,4.77
2019-01-11T21:47:15.218Z,7.73
2019-01-11T21:49:48.335Z,6.10
2019-01-11T21:52:18.785Z,6.07
2019-01-11T21:54:49.942Z,7.17
2019-01-11T21:57:20.089Z,5.17
2019-01-11T21:59:50.567Z,6.03
2019-01-11T22:02:20.715Z,6.10
2019-01-11T22:04:50.890Z,6.17
2019-01-11T22:07:21.023Z,3.80
2019-01-11T22:09:51.576Z,5.93
2019-01-11T22:12:21.790Z,4.13
2019-01-11T22:14:51.968Z,5.00
2019-01-11T22:17:23.057Z,3.40
2019-01-11T22:19:53.526Z,6.57
2019-01-11T22:22:23.663Z,6.90
2019-01-11T22:24:53.808Z,4.83
2019-01-11T22:27:25.690Z,8.63
2019-01-11T22:29:55.909Z,6.37
2019-01-11T22:32:28.182Z,9.57
2019-01-11T22:34:58.562Z,5.90
2019-01-11T22:37:28.747Z,9.03
2019-01-11T22:40:00.496Z,7.40
2019-01-11T22:42:30.936Z,7.63
2019-01-11T22:45:01.183Z,6.23
2019-01-11T22:47:31.449Z,6.73
2019-01-11T22:50:01.685Z,10.63
2019-01-11T22:52:31.806Z,6.33
2019-01-11T22:55:02.124Z,10.70
2019-01-11T22:57:32.455Z,8.30
2019-01-11T23:00:02.936Z,9.43
2019-01-11T23:02:39.175Z,7.37
2019-01-11T23:05:12.195Z,8.13
2019-01-11T23:07:51.318Z,7.57
2019-01-11T23:10:39.663Z,7.77
2019-01-11T23:13:15.340Z,8.13
2019-01-11T23:15:49.353Z,7.93
2019-01-11T23:18:22.362Z,9.27
2019-01-11T23:20:55.271Z,7.70
2019-01-11T23:23:25.475Z,14.43
2019-01-11T23:25:56.642Z,9.60
2019-01-11T23:28:26.848Z,8.23
2019-01-11T23:30:56.994Z,8.87
2019-01-11T23:33:27.153Z,12.33
2019-01-11T23:35:57.321Z,7.97
2019-01-11T23:38:27.550Z,6.13
2019-01-11T23:40:57.725Z,10.23
2019-01-11T23:43:27.973Z,11.47
2019-01-11T23:45:58.197Z,11.60
2019-01-11T23:48:28.386Z,12.97
2019-01-11T23:50:58.632Z,11.70
2019-01-11T23:53:28.827Z,9.40
2019-01-11T23:55:58.995Z,10.33
2019-01-11T23:58:29.167Z,9.67
